Time;durP1;ratioP1;P1;durP2;ratioP2;P2;SDS_P1;SDS_P2;PMS_P1;PMS_P2;Temp;Humidity;BMP_temperature;BMP_pressure;BME280_temperature;BME280_humidity;BME280_pressure;Samples;Min_cycle;Max_cycle;Signal;HPM_P1;HPM_P2
2022/11/19 00:01:04;;;;;;;;;;;17.40;72.10;;;;;;10384629;28;19934;-69
2022/11/19 00:06:07;;;;;;;;;;;17.40;72.10;;;;;;10384680;28;20403;-69
2022/11/19 00:11:13;;;;;;;;;;;17.30;72.10;;;;;;10382789;28;19934;-70
2022/11/19 00:16:15;;;;;;;;;;;17.30;72.00;;;;;;10383596;28;19940;-69
2022/11/19 00:21:17;;;;;;;;;;;17.30;72.00;;;;;;10384408;28;20469;-68
2022/11/19 00:26:19;;;;;;;;;;;17.30;71.90;;;;;;10383415;28;20307;-69
2022/11/19 00:31:20;;;;;;;;;;;17.20;71.70;;;;;;10384166;28;20017;-69
2022/11/19 00:36:22;;;;;;;;;;;17.20;71.70;;;;;;10384242;28;20039;-69
2022/11/19 00:41:24;;;;;;;;;;;17.20;71.80;;;;;;10382868;28;20020;-69
2022/11/19 00:46:27;;;;;;;;;;;17.20;71.70;;;;;;10383724;28;19940;-69
2022/11/19 00:51:29;;;;;;;;;;;17.20;71.50;;;;;;10382987;28;20028;-69
2022/11/19 00:56:31;;;;;;;;;;;17.20;71.40;;;;;;10383662;28;20032;-69
2022/11/19 01:01:32;;;;;;;;;;;17.10;71.50;;;;;;10382259;28;19941;-69
2022/11/19 01:06:34;;;;;;;;;;;17.10;71.40;;;;;;10383059;28;19984;-69
2022/11/19 01:11:38;;;;;;;;;;;17.10;71.20;;;;;;10382748;28;20028;-69
2022/11/19 01:16:40;;;;;;;;;;;17.10;71.50;;;;;;10383157;28;20017;-69
2022/11/19 01:21:41;;;;;;;;;;;17.10;71.30;;;;;;10382795;28;19940;-69
2022/11/19 01:26:43;;;;;;;;;;;17.10;71.10;;;;;;10383221;28;20017;-69
2022/11/19 01:31:46;;;;;;;;;;;17.10;71.20;;;;;;10382294;28;19934;-69
2022/11/19 01:36:49;;;;;;;;;;;17.10;71.10;;;;;;10381444;28;19965;-68
2022/11/19 01:41:51;;;;;;;;;;;17.00;70.90;;;;;;10382242;28;20461;-68
2022/11/19 01:46:53;;;;;;;;;;;17.10;70.90;;;;;;10381406;28;20032;-69
2022/11/19 01:51:57;;;;;;;;;;;17.10;71.00;;;;;;10382047;28;20052;-69
2022/11/19 01:57:01;;;;;;;;;;;17.00;70.60;;;;;;10381394;28;20025;-69
2022/11/19 02:07:23;;;;;;;;;;;17.00;70.60;;;;;;10383336;28;19934;-69
2022/11/19 02:12:33;;;;;;;;;;;17.00;70.50;;;;;;10381732;28;20525;-69
2022/11/19 02:18:00;;;;;;;;;;;16.90;70.30;;;;;;10381360;28;20076;-69
2022/11/19 02:23:37;;;;;;;;;;;16.90;70.30;;;;;;10362864;28;20064;-69
2022/11/19 02:28:49;;;;;;;;;;;17.00;70.40;;;;;;10308397;28;20582;-69
2022/11/19 02:33:53;;;;;;;;;;;16.90;70.10;;;;;;10379644;28;19934;-69
2022/11/19 02:38:59;;;;;;;;;;;16.90;70.30;;;;;;10380763;28;19933;-69
2022/11/19 02:49:39;;;;;;;;;;;16.90;70.10;;;;;;10382910;28;19934;-69
2022/11/19 02:54:40;;;;;;;;;;;16.90;70.10;;;;;;10387598;28;20423;-69
2022/11/19 03:05:07;;;;;;;;;;;16.90;70.00;;;;;;10385633;28;20455;-69
2022/11/19 03:10:10;;;;;;;;;;;16.90;69.90;;;;;;10386594;28;19934;-69
2022/11/19 03:20:53;;;;;;;;;;;16.80;69.60;;;;;;10386885;28;19980;-69
2022/11/19 03:26:02;;;;;;;;;;;16.80;69.80;;;;;;10386005;28;19973;-69
2022/11/19 03:31:05;;;;;;;;;;;16.80;69.80;;;;;;10386687;28;19965;-69
2022/11/19 03:36:09;;;;;;;;;;;16.80;69.90;;;;;;10386023;28;20056;-69
2022/11/19 03:41:11;;;;;;;;;;;16.80;69.70;;;;;;10386251;28;20037;-69
2022/11/19 03:46:16;;;;;;;;;;;16.70;69.60;;;;;;10386728;28;19969;-69
2022/11/19 03:51:47;;;;;;;;;;;16.70;69.70;;;;;;10384898;28;20020;-69
2022/11/19 03:56:49;;;;;;;;;;;16.70;69.80;;;;;;10368160;28;19934;-69
2022/11/19 04:01:51;;;;;;;;;;;16.70;69.90;;;;;;10385046;28;19978;-69
2022/11/19 04:06:53;;;;;;;;;;;16.70;69.80;;;;;;10383797;28;19934;-69
2022/11/19 04:11:55;;;;;;;;;;;16.70;69.70;;;;;;10385685;28;20289;-69
2022/11/19 04:16:56;;;;;;;;;;;16.70;69.80;;;;;;10384367;28;20364;-69
2022/11/19 04:21:58;;;;;;;;;;;16.70;68.80;;;;;;10384117;28;20550;-69
2022/11/19 04:27:00;;;;;;;;;;;16.70;69.00;;;;;;10384119;28;20033;-69
2022/11/19 04:32:01;;;;;;;;;;;16.70;68.90;;;;;;10384533;28;19973;-69
2022/11/19 04:37:03;;;;;;;;;;;16.70;68.70;;;;;;10383852;28;20467;-69
2022/11/19 04:42:05;;;;;;;;;;;16.70;68.60;;;;;;10383543;28;19941;-69
2022/11/19 04:47:06;;;;;;;;;;;16.70;68.60;;;;;;10384146;28;20025;-70
2022/11/19 04:52:08;;;;;;;;;;;16.70;68.40;;;;;;10381713;28;19934;-69
2022/11/19 04:57:10;;;;;;;;;;;16.60;68.30;;;;;;10383859;28;19940;-69
2022/11/19 05:02:11;;;;;;;;;;;16.60;68.30;;;;;;10382892;28;20090;-69
2022/11/19 05:07:13;;;;;;;;;;;16.60;68.20;;;;;;10383079;28;19972;-69
2022/11/19 05:12:15;;;;;;;;;;;16.60;68.10;;;;;;10380348;28;19941;-69
2022/11/19 05:17:17;;;;;;;;;;;16.50;68.00;;;;;;10382771;28;20377;-69
2022/11/19 05:22:19;;;;;;;;;;;16.50;68.00;;;;;;10381206;28;19934;-69
2022/11/19 05:27:21;;;;;;;;;;;16.50;68.00;;;;;;10382278;28;20033;-69
2022/11/19 05:32:23;;;;;;;;;;;16.50;67.90;;;;;;10382019;28;20032;-69
2022/11/19 05:37:24;;;;;;;;;;;16.50;67.90;;;;;;10382890;28;19940;-69
2022/11/19 05:42:26;;;;;;;;;;;16.50;68.30;;;;;;10380129;28;19980;-69
2022/11/19 05:47:28;;;;;;;;;;;16.60;68.70;;;;;;10381674;28;20006;-69
2022/11/19 05:52:30;;;;;;;;;;;16.90;68.30;;;;;;10381535;28;19934;-68
2022/11/19 05:57:32;;;;;;;;;;;17.30;67.70;;;;;;10380294;28;19980;-69
2022/11/19 06:02:34;;;;;;;;;;;17.50;66.90;;;;;;10381584;28;20036;-69
2022/11/19 06:07:35;;;;;;;;;;;17.80;66.40;;;;;;10382563;28;19943;-69
2022/11/19 06:12:37;;;;;;;;;;;18.00;65.90;;;;;;10381834;28;19934;-69
2022/11/19 06:17:46;;;;;;;;;;;18.10;66.60;;;;;;10380419;28;19966;-69
2022/11/19 06:22:48;;;;;;;;;;;18.30;65.20;;;;;;10380250;28;19938;-70
2022/11/19 06:27:50;;;;;;;;;;;18.40;64.90;;;;;;10387476;28;20032;-69
2022/11/19 06:32:52;;;;;;;;;;;18.50;64.40;;;;;;10388919;28;20356;-69
2022/11/19 06:37:54;;;;;;;;;;;18.50;64.20;;;;;;10387704;28;20033;-69
2022/11/19 06:42:55;;;;;;;;;;;18.50;64.30;;;;;;10388010;28;20016;-69
2022/11/19 06:47:57;;;;;;;;;;;18.40;64.30;;;;;;10387639;28;20050;-68
2022/11/19 06:52:59;;;;;;;;;;;18.30;64.50;;;;;;10388379;28;20017;-68
2022/11/19 06:58:01;;;;;;;;;;;18.30;64.80;;;;;;10388249;28;19934;-69
2022/11/19 07:03:03;;;;;;;;;;;18.10;64.90;;;;;;10386703;28;20020;-69
2022/11/19 07:08:05;;;;;;;;;;;18.10;65.10;;;;;;10386689;28;20393;-69
2022/11/19 07:13:06;;;;;;;;;;;18.00;65.30;;;;;;10387291;28;19934;-69
2022/11/19 07:18:08;;;;;;;;;;;18.00;65.60;;;;;;10386776;28;19934;-69
2022/11/19 07:23:10;;;;;;;;;;;18.10;65.50;;;;;;10385781;28;19934;-69
2022/11/19 07:28:11;;;;;;;;;;;18.20;65.30;;;;;;10386162;28;20028;-69
2022/11/19 07:33:13;;;;;;;;;;;18.30;66.10;;;;;;10385499;28;19934;-69
2022/11/19 07:38:15;;;;;;;;;;;18.40;64.80;;;;;;10385380;28;20017;-69
2022/11/19 07:43:17;;;;;;;;;;;18.60;64.60;;;;;;10384878;28;20153;-69
2022/11/19 07:48:19;;;;;;;;;;;18.60;64.40;;;;;;10384726;28;19933;-69
2022/11/19 07:53:21;;;;;;;;;;;18.60;64.30;;;;;;10384258;28;19934;-69
2022/11/19 07:58:22;;;;;;;;;;;18.60;64.70;;;;;;10398488;28;19933;-69
2022/11/19 08:03:24;;;;;;;;;;;18.60;64.40;;;;;;10396645;28;19933;-69
2022/11/19 08:08:26;;;;;;;;;;;18.60;64.30;;;;;;10385043;28;20024;-70
2022/11/19 08:13:28;;;;;;;;;;;18.60;63.90;;;;;;10384425;28;20024;-69
2022/11/19 08:18:30;;;;;;;;;;;18.50;64.20;;;;;;10384157;28;20877;-68
2022/11/19 08:23:32;;;;;;;;;;;18.50;64.90;;;;;;10383132;28;19993;-69
2022/11/19 08:28:34;;;;;;;;;;;18.70;65.10;;;;;;10384291;28;19933;-69
2022/11/19 08:33:36;;;;;;;;;;;18.90;64.60;;;;;;10383728;28;20365;-69
2022/11/19 08:38:37;;;;;;;;;;;19.00;64.40;;;;;;10383615;28;20332;-70
2022/11/19 08:43:39;;;;;;;;;;;19.00;64.20;;;;;;10384535;28;20307;-70
2022/11/19 08:48:41;;;;;;;;;;;18.90;64.30;;;;;;10382399;28;19933;-71
2022/11/19 08:53:43;;;;;;;;;;;18.80;64.50;;;;;;10382598;28;20060;-70
2022/11/19 08:58:47;;;;;;;;;;;18.80;65.00;;;;;;10380105;28;24692;-69
2022/11/19 09:03:49;;;;;;;;;;;18.80;65.10;;;;;;10380236;28;19981;-70
2022/11/19 09:08:51;;;;;;;;;;;18.80;64.90;;;;;;10382551;28;19934;-70
2022/11/19 09:13:52;;;;;;;;;;;18.80;64.80;;;;;;10382774;28;20369;-70
2022/11/19 09:18:54;;;;;;;;;;;18.70;64.60;;;;;;10380756;28;20029;-70
2022/11/19 09:23:56;;;;;;;;;;;18.70;65.80;;;;;;10382175;28;19940;-70
2022/11/19 09:28:57;;;;;;;;;;;18.80;64.50;;;;;;10382879;28;19934;-70
2022/11/19 09:33:59;;;;;;;;;;;18.80;64.50;;;;;;10382605;28;20029;-70
2022/11/19 09:39:02;;;;;;;;;;;18.70;64.40;;;;;;10383254;28;19969;-70
2022/11/19 09:44:19;;;;;;;;;;;18.70;64.70;;;;;;10382534;28;20161;-70
2022/11/19 09:49:40;;;;;;;;;;;18.80;64.70;;;;;;10382840;28;20020;-71
2022/11/19 09:54:47;;;;;;;;;;;18.90;64.30;;;;;;10382174;28;20435;-70
2022/11/19 09:59:50;;;;;;;;;;;19.00;63.80;;;;;;10385413;28;19976;-70
2022/11/19 10:04:52;;;;;;;;;;;19.00;63.80;;;;;;10390020;28;19973;-69
2022/11/19 10:09:54;;;;;;;;;;;18.90;63.80;;;;;;10389596;28;19956;-70
2022/11/19 10:15:13;;;;;;;;;;;18.90;64.00;;;;;;10388459;28;20017;-70
2022/11/19 10:20:27;;;;;;;;;;;19.00;63.80;;;;;;10388478;28;20418;-70
2022/11/19 10:25:38;;;;;;;;;;;19.00;63.60;;;;;;10387581;28;20059;-70
2022/11/19 10:30:48;;;;;;;;;;;18.90;63.60;;;;;;10388085;28;20032;-70
2022/11/19 10:35:55;;;;;;;;;;;18.80;63.90;;;;;;10387500;28;20392;-70
2022/11/19 10:41:00;;;;;;;;;;;18.90;63.80;;;;;;10387814;28;20028;-70
2022/11/19 10:46:04;;;;;;;;;;;18.90;63.80;;;;;;10370013;28;19969;-70
2022/11/19 10:51:23;;;;;;;;;;;18.80;63.70;;;;;;10385875;28;19980;-70
2022/11/19 10:56:38;;;;;;;;;;;18.80;63.90;;;;;;10386236;28;20028;-70
2022/11/19 11:01:41;;;;;;;;;;;18.80;64.00;;;;;;10388791;28;20395;-71
2022/11/19 11:06:51;;;;;;;;;;;19.00;63.80;;;;;;10387251;28;20885;-70
2022/11/19 11:17:17;;;;;;;;;;;19.00;63.30;;;;;;10387474;28;20020;-70
2022/11/19 11:22:19;;;;;;;;;;;18.90;63.30;;;;;;10384349;28;20028;-70
2022/11/19 11:27:21;;;;;;;;;;;18.90;63.50;;;;;;10386953;28;20028;-71
2022/11/19 11:32:26;;;;;;;;;;;18.90;63.20;;;;;;10386572;28;19973;-70
2022/11/19 11:37:28;;;;;;;;;;;18.90;66.30;;;;;;10385922;28;20582;-70
2022/11/19 11:42:30;;;;;;;;;;;18.80;66.90;;;;;;10384300;28;20024;-68
2022/11/19 11:47:36;;;;;;;;;;;18.80;65.20;;;;;;10384476;28;20096;-68
2022/11/19 11:52:39;;;;;;;;;;;18.80;65.20;;;;;;10385058;28;19934;-67
2022/11/19 11:57:58;;;;;;;;;;;18.90;65.00;;;;;;10385853;28;20495;-67
2022/11/19 12:03:01;;;;;;;;;;;18.90;64.70;;;;;;10383099;28;20036;-68
2022/11/19 12:08:06;;;;;;;;;;;18.90;65.00;;;;;;10384850;28;19969;-68
2022/11/19 12:13:14;;;;;;;;;;;18.80;65.20;;;;;;10384454;28;20055;-68
2022/11/19 12:18:25;;;;;;;;;;;18.70;65.20;;;;;;10384931;28;19957;-68
2022/11/19 12:23:30;;;;;;;;;;;18.70;65.50;;;;;;10384519;28;20044;-69
2022/11/19 12:28:37;;;;;;;;;;;18.60;65.80;;;;;;10385052;28;20420;-69
2022/11/19 12:33:48;;;;;;;;;;;18.60;66.00;;;;;;10384138;28;20214;-69
2022/11/19 12:38:50;;;;;;;;;;;18.60;66.20;;;;;;10382095;28;19973;-69
2022/11/19 12:44:06;;;;;;;;;;;18.70;66.30;;;;;;10384295;28;20036;-69
2022/11/19 12:49:13;;;;;;;;;;;18.80;66.40;;;;;;10383853;28;20424;-68
2022/11/19 12:54:21;;;;;;;;;;;18.80;66.40;;;;;;10384163;28;20605;-69
2022/11/19 12:59:34;;;;;;;;;;;18.90;66.50;;;;;;10383136;28;19981;-67
2022/11/19 13:05:03;;;;;;;;;;;18.80;66.70;;;;;;10382879;28;19992;-69
2022/11/19 13:10:10;;;;;;;;;;;18.80;67.20;;;;;;10379134;28;20817;-68
2022/11/19 13:15:21;;;;;;;;;;;18.70;67.40;;;;;;10383627;28;20444;-69
2022/11/19 13:20:26;;;;;;;;;;;18.60;67.50;;;;;;10383118;28;20040;-69
2022/11/19 13:25:37;;;;;;;;;;;18.60;67.80;;;;;;10383099;28;20427;-69
2022/11/19 13:30:40;;;;;;;;;;;18.50;68.10;;;;;;10383086;28;19934;-70
2022/11/19 13:35:50;;;;;;;;;;;18.50;68.40;;;;;;10381797;28;19933;-68
2022/11/19 13:41:05;;;;;;;;;;;18.40;68.50;;;;;;10382311;28;20025;-68
2022/11/19 13:46:09;;;;;;;;;;;18.40;68.50;;;;;;10382270;28;20064;-69
2022/11/19 13:51:19;;;;;;;;;;;18.30;68.80;;;;;;10382904;28;20012;-69
2022/11/19 13:56:21;;;;;;;;;;;18.30;69.00;;;;;;10382447;28;20404;-69
2022/11/19 14:01:37;;;;;;;;;;;18.30;68.70;;;;;;10381860;28;19985;-69
2022/11/19 14:06:48;;;;;;;;;;;18.20;68.30;;;;;;10381291;28;19938;-69
2022/11/19 14:12:06;;;;;;;;;;;18.20;68.50;;;;;;10381354;28;20409;-71
2022/11/19 14:28:34;;;;;;;;;;;18.10;68.10;;;;;;10381855;28;20028;-69
2022/11/19 14:33:48;;;;;;;;;;;18.10;67.50;;;;;;10381099;28;20024;-68
2022/11/19 14:38:52;;;;;;;;;;;18.00;67.00;;;;;;10378795;28;20020;-68
2022/11/19 14:44:07;;;;;;;;;;;18.00;67.20;;;;;;10380896;28;20375;-69
2022/11/19 14:49:36;;;;;;;;;;;18.00;67.10;;;;;;10387343;28;20281;-69
2022/11/19 14:54:41;;;;;;;;;;;18.00;67.00;;;;;;10385407;28;19980;-68
2022/11/19 14:59:45;;;;;;;;;;;18.20;67.90;;;;;;10387794;28;19934;-69
2022/11/19 15:04:49;;;;;;;;;;;18.20;66.70;;;;;;10387224;28;19934;-68
2022/11/19 15:10:10;;;;;;;;;;;18.30;66.50;;;;;;10387774;28;20044;-68
2022/11/19 15:15:18;;;;;;;;;;;18.30;66.20;;;;;;10387087;28;19976;-69
2022/11/19 15:20:20;;;;;;;;;;;18.20;66.00;;;;;;10385761;28;20011;-68
2022/11/19 15:25:21;;;;;;;;;;;18.20;65.90;;;;;;10385417;28;20029;-68
2022/11/19 15:30:33;;;;;;;;;;;18.20;65.90;;;;;;10386813;28;20009;-68
2022/11/19 15:35:54;;;;;;;;;;;18.20;66.00;;;;;;10385378;28;21084;-69
2022/11/19 15:40:58;;;;;;;;;;;18.20;66.80;;;;;;10386251;28;20365;-68
2022/11/19 15:46:03;;;;;;;;;;;18.30;65.80;;;;;;10384900;28;20498;-69
2022/11/19 15:51:06;;;;;;;;;;;18.30;65.60;;;;;;10385703;28;20017;-69
2022/11/19 15:56:10;;;;;;;;;;;18.50;65.40;;;;;;10385084;28;19934;-69
2022/11/19 16:01:13;;;;;;;;;;;18.60;65.00;;;;;;10385030;28;19961;-69
2022/11/19 16:06:19;;;;;;;;;;;18.70;64.60;;;;;;10384643;28;20721;-69
2022/11/19 16:22:03;;;;;;;;;;;18.60;64.30;;;;;;10384346;28;20044;-69
2022/11/19 16:27:08;;;;;;;;;;;18.50;64.30;;;;;;10384787;28;20356;-70
2022/11/19 16:32:13;;;;;;;;;;;18.50;64.30;;;;;;10384372;28;19933;-69
2022/11/19 16:37:17;;;;;;;;;;;18.40;63.70;;;;;;10384679;28;20356;-68
2022/11/19 16:42:24;;;;;;;;;;;18.40;63.30;;;;;;10382235;28;19971;-68
2022/11/19 16:47:28;;;;;;;;;;;18.50;64.90;;;;;;10384270;28;20016;-67
2022/11/19 16:52:33;;;;;;;;;;;18.60;64.40;;;;;;10383549;28;20028;-67
2022/11/19 16:57:34;;;;;;;;;;;18.90;64.20;;;;;;10383146;28;19961;-68
2022/11/19 17:02:37;;;;;;;;;;;19.10;64.40;;;;;;10382803;28;19940;-68
2022/11/19 17:07:41;;;;;;;;;;;19.30;63.70;;;;;;10380860;28;20661;-67
2022/11/19 17:12:50;;;;;;;;;;;19.20;63.50;;;;;;10383480;28;20017;-68
2022/11/19 17:17:52;;;;;;;;;;;19.10;64.70;;;;;;10382961;28;20528;-68
2022/11/19 17:22:54;;;;;;;;;;;19.10;65.00;;;;;;10382719;28;19977;-67
2022/11/19 17:27:57;;;;;;;;;;;19.10;66.80;;;;;;10382603;28;20753;-67
2022/11/19 17:33:00;;;;;;;;;;;19.00;64.80;;;;;;10382693;28;19933;-68
2022/11/19 17:38:11;;;;;;;;;;;19.10;64.60;;;;;;10364171;28;19934;-68
2022/11/19 17:48:37;;;;;;;;;;;19.00;63.80;;;;;;10381419;28;20026;-68
2022/11/19 17:53:39;;;;;;;;;;;19.00;64.20;;;;;;10381287;28;20375;-69
2022/11/19 17:58:41;;;;;;;;;;;19.10;64.40;;;;;;10380456;28;19969;-67
2022/11/19 18:03:43;;;;;;;;;;;19.10;64.10;;;;;;10381230;28;19981;-68
2022/11/19 18:08:44;;;;;;;;;;;19.00;64.00;;;;;;10379405;28;19985;-68
2022/11/19 18:13:47;;;;;;;;;;;19.00;64.70;;;;;;10380538;28;19980;-68
2022/11/19 18:18:49;;;;;;;;;;;19.00;64.60;;;;;;10381655;28;19988;-67
2022/11/19 18:23:51;;;;;;;;;;;19.20;64.50;;;;;;10387895;28;19934;-68
2022/11/19 18:28:52;;;;;;;;;;;19.30;64.20;;;;;;10387790;28;20029;-67
2022/11/19 18:33:55;;;;;;;;;;;19.30;64.00;;;;;;10387590;28;20024;-67
2022/11/19 18:38:56;;;;;;;;;;;19.30;64.10;;;;;;10387763;28;19933;-67
2022/11/19 18:49:19;;;;;;;;;;;19.30;64.10;;;;;;10387502;28;19938;-67
2022/11/19 18:54:21;;;;;;;;;;;19.30;64.10;;;;;;10387598;28;19988;-68
2022/11/19 18:59:23;;;;;;;;;;;19.20;64.00;;;;;;10387090;28;20408;-68
2022/11/19 19:04:25;;;;;;;;;;;19.20;64.20;;;;;;10384968;28;20032;-68
2022/11/19 19:09:27;;;;;;;;;;;19.20;64.30;;;;;;10387405;28;20012;-68
2022/11/19 19:14:28;;;;;;;;;;;19.20;64.10;;;;;;10386753;28;20402;-67
2022/11/19 19:19:30;;;;;;;;;;;19.20;63.90;;;;;;10385711;28;20016;-68
2022/11/19 19:24:32;;;;;;;;;;;19.20;63.80;;;;;;10387132;28;19984;-68
2022/11/19 19:29:34;;;;;;;;;;;19.10;63.70;;;;;;10385510;28;20029;-67
2022/11/19 19:34:36;;;;;;;;;;;19.20;64.20;;;;;;10386629;28;20032;-67
2022/11/19 19:39:37;;;;;;;;;;;19.30;63.90;;;;;;10387214;28;20012;-68
2022/11/19 19:44:39;;;;;;;;;;;19.50;63.40;;;;;;10386132;28;20024;-67
2022/11/19 19:49:41;;;;;;;;;;;19.60;63.20;;;;;;10384600;28;19984;-68
2022/11/19 19:54:43;;;;;;;;;;;19.50;63.10;;;;;;10385168;28;20028;-67
2022/11/19 19:59:45;;;;;;;;;;;19.50;63.40;;;;;;10386412;28;19977;-67
2022/11/19 20:04:46;;;;;;;;;;;19.50;63.20;;;;;;10384579;28;20028;-67
2022/11/19 20:09:48;;;;;;;;;;;19.60;63.10;;;;;;10384959;28;20809;-67
2022/11/19 20:14:51;;;;;;;;;;;19.50;64.10;;;;;;10385012;28;19934;-68
2022/11/19 20:19:52;;;;;;;;;;;19.40;63.00;;;;;;10385422;28;20029;-67
2022/11/19 20:24:54;;;;;;;;;;;19.30;63.30;;;;;;10385155;28;20024;-68
2022/11/19 20:29:56;;;;;;;;;;;19.40;63.30;;;;;;10386037;28;19969;-67
2022/11/19 20:34:58;;;;;;;;;;;19.40;63.20;;;;;;10384100;28;20019;-67
2022/11/19 20:40:00;;;;;;;;;;;19.30;63.10;;;;;;10384063;28;19966;-67
2022/11/19 20:45:02;;;;;;;;;;;19.30;63.20;;;;;;10381318;28;20032;-67
2022/11/19 20:50:04;;;;;;;;;;;19.30;63.50;;;;;;10384032;28;20016;-67
2022/11/19 20:55:05;;;;;;;;;;;19.40;63.30;;;;;;10384354;28;20016;-68
2022/11/19 21:00:07;;;;;;;;;;;19.30;63.10;;;;;;10382271;28;19965;-67
2022/11/19 21:05:09;;;;;;;;;;;19.30;63.00;;;;;;10382654;28;20828;-67
2022/11/19 21:10:11;;;;;;;;;;;19.20;63.10;;;;;;10382120;28;20048;-67
2022/11/19 21:15:13;;;;;;;;;;;19.10;63.20;;;;;;10382370;28;20032;-68
2022/11/19 21:20:16;;;;;;;;;;;19.10;63.30;;;;;;10382886;28;19934;-67
2022/11/19 21:25:17;;;;;;;;;;;18.90;63.30;;;;;;10382551;28;20051;-68
2022/11/19 21:30:19;;;;;;;;;;;18.80;64.50;;;;;;10381824;28;19940;-68
2022/11/19 21:35:21;;;;;;;;;;;18.70;63.60;;;;;;10383099;28;19961;-68
2022/11/19 21:40:22;;;;;;;;;;;18.60;63.70;;;;;;10381999;28;20028;-69
2022/11/19 21:45:24;;;;;;;;;;;18.50;63.90;;;;;;10381620;28;20023;-68
2022/11/19 21:50:26;;;;;;;;;;;18.40;63.80;;;;;;10381828;28;20028;-70
2022/11/19 21:55:27;;;;;;;;;;;18.30;63.90;;;;;;10380214;28;20065;-68
2022/11/19 22:00:29;;;;;;;;;;;18.30;63.70;;;;;;10380973;28;19934;-68
2022/11/19 22:05:31;;;;;;;;;;;18.10;63.50;;;;;;10380624;28;19934;-68
2022/11/19 22:10:33;;;;;;;;;;;18.10;63.70;;;;;;10382388;28;19957;-69
2022/11/19 22:15:35;;;;;;;;;;;18.00;63.70;;;;;;10380807;28;19933;-69
2022/11/19 22:20:36;;;;;;;;;;;17.90;63.70;;;;;;10382345;28;20012;-68
2022/11/19 22:25:38;;;;;;;;;;;17.90;63.80;;;;;;10381191;28;20220;-69
2022/11/19 22:30:40;;;;;;;;;;;17.80;63.70;;;;;;10381880;28;20094;-69
2022/11/19 22:35:42;;;;;;;;;;;17.80;63.60;;;;;;10380710;28;19977;-68
2022/11/19 22:40:44;;;;;;;;;;;17.70;63.70;;;;;;10380922;28;20391;-68
2022/11/19 22:45:45;;;;;;;;;;;17.70;63.60;;;;;;10380777;28;19933;-68
2022/11/19 22:50:47;;;;;;;;;;;17.60;63.60;;;;;;10380089;28;20402;-68
2022/11/19 22:55:49;;;;;;;;;;;17.60;63.70;;;;;;10379658;28;19934;-67
2022/11/19 23:00:51;;;;;;;;;;;17.60;63.60;;;;;;10380155;28;20367;-68
2022/11/19 23:05:53;;;;;;;;;;;17.50;63.50;;;;;;10379715;28;19933;-68
2022/11/19 23:10:59;;;;;;;;;;;17.50;63.40;;;;;;10386976;28;19973;-68
2022/11/19 23:16:03;;;;;;;;;;;17.50;63.60;;;;;;10386469;28;20107;-68
2022/11/19 23:21:10;;;;;;;;;;;17.40;63.40;;;;;;10385552;28;19934;-68
2022/11/19 23:26:13;;;;;;;;;;;17.40;63.40;;;;;;10386266;28;19933;-68
2022/11/19 23:31:19;;;;;;;;;;;17.30;63.50;;;;;;10386320;28;20393;-68
2022/11/19 23:36:23;;;;;;;;;;;17.30;63.30;;;;;;10384257;28;19934;-68
2022/11/19 23:41:24;;;;;;;;;;;17.30;63.40;;;;;;10385080;28;19934;-67
2022/11/19 23:46:30;;;;;;;;;;;17.20;63.30;;;;;;10384451;28;20474;-68
2022/11/19 23:51:36;;;;;;;;;;;17.20;63.30;;;;;;10385959;28;20000;-68
2022/11/19 23:56:37;;;;;;;;;;;17.20;63.30;;;;;;10385782;28;19965;-68
